Time;durP1;ratioP1;P1;durP2;ratioP2;P2;SDS_P1;SDS_P2;PMS_P1;PMS_P2;Temp;Humidity;BMP_temperature;BMP_pressure;BME280_temperature;BME280_humidity;BME280_pressure;Samples;Min_cycle;Max_cycle;Signal;HPM_P1;HPM_P2
2024/01/11 00:00:14;;;;;;;;;18.25;15.50;;;;;8.08;65.21;100846.84;5120512;27;45481;-68
2024/01/11 00:02:40;;;;;;;;;18.50;15.25;;;;;7.98;65.19;100831.63;5120251;27;45411;-68
2024/01/11 00:05:06;;;;;;;;;16.00;14.25;;;;;8.00;65.41;100826.47;5119712;27;45366;-68
2024/01/11 00:07:32;;;;;;;;;16.00;13.25;;;;;8.14;64.87;100854.91;5119793;27;45467;-68
2024/01/11 00:09:58;;;;;;;;;15.25;13.00;;;;;8.09;65.10;100846.00;5119996;27;45569;-68
2024/01/11 00:12:23;;;;;;;;;14.50;10.75;;;;;8.09;65.07;100845.09;5120213;27;45241;-69
2024/01/11 00:14:49;;;;;;;;;14.75;12.25;;;;;8.07;64.89;100842.44;5119582;27;46021;-69
2024/01/11 00:17:15;;;;;;;;;11.00;9.50;;;;;8.07;64.71;100839.84;5119933;27;45391;-67
2024/01/11 00:19:41;;;;;;;;;10.75;10.75;;;;;8.08;64.28;100848.56;5119667;27;45365;-68
2024/01/11 00:22:07;;;;;;;;;15.50;12.00;;;;;8.08;64.26;100848.56;5119622;27;45479;-68
2024/01/11 00:24:32;;;;;;;;;18.00;15.50;;;;;8.06;64.27;100852.81;5116682;27;45460;-69
2024/01/11 00:26:58;;;;;;;;;11.75;11.00;;;;;8.03;64.47;100857.84;5119819;27;45497;-69
2024/01/11 00:29:23;;;;;;;;;11.75;10.75;;;;;7.99;64.77;100851.59;5119747;27;45658;-68
2024/01/11 00:31:49;;;;;;;;;11.50;10.25;;;;;7.96;65.28;100857.56;5119779;27;45847;-69
2024/01/11 00:34:15;;;;;;;;;27.50;23.00;;;;;7.97;64.98;100863.66;5119761;27;45511;-69
2024/01/11 00:36:40;;;;;;;;;7.50;7.50;;;;;8.01;65.05;100864.69;5119674;27;45548;-68
2024/01/11 00:39:06;;;;;;;;;13.50;12.00;;;;;8.02;65.08;100859.56;5119560;27;45483;-68
2024/01/11 00:41:31;;;;;;;;;63.00;49.00;;;;;8.04;65.08;100862.22;5119123;27;45593;-71
2024/01/11 00:43:57;;;;;;;;;30.00;29.25;;;;;8.05;64.78;100854.47;5119441;27;45633;-68
2024/01/11 00:46:23;;;;;;;;;72.25;55.00;;;;;8.05;64.71;100854.47;5119191;27;45474;-69
2024/01/11 00:48:48;;;;;;;;;51.25;39.75;;;;;8.04;64.69;100846.59;5119416;27;45298;-69
2024/01/11 00:51:15;;;;;;;;;57.50;47.25;;;;;8.01;64.22;100855.16;5117949;27;45363;-69
2024/01/11 00:53:41;;;;;;;;;32.50;29.25;;;;;7.97;64.62;100858.47;5118999;27;45450;-68
2024/01/11 00:56:15;;;;;;;;;24.50;22.00;;;;;7.74;64.56;100821.91;5119216;27;45381;-68
2024/01/11 00:58:41;;;;;;;;;40.25;33.75;;;;;7.97;64.83;100858.47;5119423;27;45495;-68
2024/01/11 01:01:09;;;;;;;;;47.00;41.00;;;;;7.94;64.79;100855.72;5119435;27;45446;-68
2024/01/11 01:03:34;;;;;;;;;30.25;27.00;;;;;7.77;64.77;100822.03;5116530;27;46179;-68
2024/01/11 01:06:01;;;;;;;;;78.75;61.50;;;;;7.96;64.96;100854.09;5117880;27;45744;-67
2024/01/11 01:08:27;;;;;;;;;56.50;41.75;;;;;7.94;64.88;100846.22;5119304;27;45608;-68
2024/01/11 01:10:53;;;;;;;;;51.00;43.25;;;;;7.94;64.88;100848.81;5119459;27;45466;-67
2024/01/11 01:13:18;;;;;;;;;43.25;35.00;;;;;7.77;64.90;100821.13;5119059;27;46059;-67
2024/01/11 01:15:44;;;;;;;;;51.00;42.75;;;;;7.83;64.94;100841.34;5118908;27;45339;-68
2024/01/11 01:18:09;;;;;;;;;51.50;40.75;;;;;7.90;64.95;100852.09;5118910;27;45182;-68
2024/01/11 01:20:35;;;;;;;;;45.00;38.00;;;;;7.92;64.90;100849.56;5119125;27;45478;-71
2024/01/11 01:23:01;;;;;;;;;30.25;27.00;;;;;7.92;64.61;100846.97;5118723;27;45970;-71
2024/01/11 01:25:27;;;;;;;;;31.75;30.50;;;;;7.89;64.75;100852.91;5118786;27;45398;-70
2024/01/11 01:27:53;;;;;;;;;31.25;28.75;;;;;7.89;64.64;100852.03;5116057;27;45431;-70
2024/01/11 01:30:18;;;;;;;;;48.50;40.50;;;;;7.67;64.69;100824.16;5119084;27;45406;-69
2024/01/11 01:32:44;;;;;;;;;22.25;21.00;;;;;7.84;64.76;100858.72;5118521;27;45289;-70
2024/01/11 01:35:09;;;;;;;;;14.50;13.25;;;;;7.86;64.91;100868.38;5118243;27;45427;-70
2024/01/11 01:37:35;;;;;;;;;14.00;11.00;;;;;7.86;64.41;100863.19;5118643;27;45576;-70
2024/01/11 01:40:01;;;;;;;;;15.25;13.25;;;;;7.65;64.08;100821.47;5118974;27;45647;-70
2024/01/11 01:42:26;;;;;;;;;12.25;12.25;;;;;7.73;64.17;100835.69;5118294;27;45309;-70
2024/01/11 01:44:52;;;;;;;;;4.00;2.00;;;;;7.85;64.85;100873.50;5118431;27;45382;-69
2024/01/11 01:47:18;;;;;;;;;16.50;12.75;;;;;7.62;65.20;100833.41;5118829;27;45404;-69
2024/01/11 01:49:45;;;;;;;;;11.25;10.25;;;;;7.80;65.12;100869.78;5118563;27;45271;-69
2024/01/11 01:52:14;;;;;;;;;11.75;10.00;;;;;7.85;65.33;100870.91;5116613;27;45486;-70
2024/01/11 01:54:40;;;;;;;;;14.25;12.00;;;;;7.87;65.67;100879.66;5116138;27;45527;-70
2024/01/11 01:57:07;;;;;;;;;13.50;12.00;;;;;7.84;65.92;100883.03;5118373;27;45558;-70
2024/01/11 01:59:34;;;;;;;;;28.50;21.25;;;;;7.88;65.73;100876.25;5115721;27;45301;-69
2024/01/11 02:02:00;;;;;;;;;29.00;21.75;;;;;7.82;65.51;100881.16;5118094;27;45553;-70
2024/01/11 02:04:27;;;;;;;;;24.00;23.00;;;;;7.76;66.17;100897.38;5118268;27;45636;-71
2024/01/11 02:06:55;;;;;;;;;29.00;25.25;;;;;7.74;66.04;100899.03;5118368;27;45407;-70
2024/01/11 02:09:20;;;;;;;;;29.75;26.00;;;;;7.74;66.31;100899.91;5118652;27;45264;-71
2024/01/11 02:11:46;;;;;;;;;28.50;24.25;;;;;7.73;65.90;100895.50;5118024;27;45466;-70
2024/01/11 02:14:12;;;;;;;;;24.00;20.75;;;;;7.68;66.22;100904.81;5117959;27;45237;-70
2024/01/11 02:16:37;;;;;;;;;28.00;27.25;;;;;7.59;66.65;100904.38;5118289;27;45310;-69
2024/01/11 02:19:07;;;;;;;;;33.00;27.25;;;;;7.54;66.82;100901.56;5118439;27;45330;-69
2024/01/11 02:21:33;;;;;;;;;28.75;26.50;;;;;7.40;66.82;100878.31;5118824;27;45441;-70
2024/01/11 02:24:06;;;;;;;;;27.75;21.00;;;;;7.51;66.67;100901.41;5119642;27;45527;-70
2024/01/11 02:26:33;;;;;;;;;31.50;27.00;;;;;7.52;67.12;100903.22;5118480;27;45438;-70
2024/01/11 02:28:59;;;;;;;;;24.25;21.00;;;;;7.51;67.29;100908.31;5118146;27;45557;-69
2024/01/11 02:31:25;;;;;;;;;22.25;19.75;;;;;7.43;67.31;100888.88;5116405;27;45303;-70
2024/01/11 02:33:52;;;;;;;;;19.50;18.75;;;;;7.41;67.31;100890.50;5118159;27;45377;-71
2024/01/11 02:36:19;;;;;;;;;13.25;10.50;;;;;7.51;67.39;100906.59;5117947;27;45359;-70
2024/01/11 02:38:45;;;;;;;;;14.25;11.50;;;;;7.44;67.12;100894.16;5116734;27;45391;-69
2024/01/11 02:41:13;;;;;;;;;12.25;11.00;;;;;7.53;66.57;100904.09;5117348;27;45392;-72
2024/01/11 02:43:39;;;;;;;;;10.00;10.00;;;;;7.41;66.66;100888.78;5117681;27;45600;-70
2024/01/11 02:46:05;;;;;;;;;14.25;14.25;;;;;7.51;66.94;100910.94;5117960;27;45664;-69
2024/01/11 02:48:31;;;;;;;;;21.75;16.50;;;;;7.56;67.05;100912.06;5118052;27;45500;-70
2024/01/11 02:50:57;;;;;;;;;17.50;15.00;;;;;7.42;66.83;100875.00;5117477;27;46090;-71
2024/01/11 02:53:23;;;;;;;;;28.75;21.50;;;;;7.44;66.72;100877.66;5117882;27;45523;-69
2024/01/11 02:55:53;;;;;;;;;18.75;18.75;;;;;7.47;67.02;100901.19;5117904;27;45541;-70
2024/01/11 02:58:18;;;;;;;;;27.00;20.25;;;;;7.49;67.18;100920.34;5117899;27;45467;-70
2024/01/11 03:00:44;;;;;;;;;29.50;25.75;;;;;7.49;67.17;100920.34;5117603;27;46195;-70
2024/01/11 03:03:09;;;;;;;;;32.00;28.75;;;;;7.32;67.33;100889.25;5117384;27;45306;-69
2024/01/11 03:05:35;;;;;;;;;32.75;25.50;;;;;7.27;67.39;100885.53;5120299;27;45450;-70
2024/01/11 03:08:00;;;;;;;;;25.50;22.75;;;;;7.42;67.28;100916.59;5121336;27;45324;-70
2024/01/11 03:10:26;;;;;;;;;28.50;25.25;;;;;7.39;66.95;100921.63;5120870;27;45409;-69
2024/01/11 03:12:52;;;;;;;;;29.75;25.00;;;;;7.19;67.35;100896.38;5121204;27;45470;-70
2024/01/11 03:15:17;;;;;;;;;33.00;29.50;;;;;7.24;67.62;100923.47;5120987;27;45414;-69
2024/01/11 03:17:43;;;;;;;;;27.50;25.00;;;;;7.21;68.01;100923.31;5121050;27;45425;-70
2024/01/11 03:20:09;;;;;;;;;29.25;25.75;;;;;7.20;68.18;100918.94;5120692;27;46129;-69
2024/01/11 03:22:34;;;;;;;;;27.50;25.00;;;;;7.17;68.39;100919.69;5119507;27;45237;-68
2024/01/11 03:25:00;;;;;;;;;31.00;25.75;;;;;7.13;68.48;100916.03;5121024;27;45495;-69
2024/01/11 03:27:26;;;;;;;;;30.50;27.75;;;;;7.17;68.70;100917.06;5121087;27;45468;-69
2024/01/11 03:29:51;;;;;;;;;34.75;27.25;;;;;7.17;68.64;100920.56;5120853;27;46073;-71
2024/01/11 03:32:17;;;;;;;;;28.00;25.50;;;;;7.14;68.58;100916.91;5120669;27;45319;-70
2024/01/11 03:34:43;;;;;;;;;27.50;22.50;;;;;7.16;68.46;100916.19;5120675;27;45379;-69
2024/01/11 03:37:08;;;;;;;;;27.25;24.75;;;;;7.13;68.48;100915.16;5120700;27;45484;-69
2024/01/11 03:39:35;;;;;;;;;28.50;24.00;;;;;7.22;68.79;100922.50;5117540;27;45546;-69
2024/01/11 03:42:00;;;;;;;;;30.00;22.50;;;;;7.22;68.66;100920.81;5120584;27;45437;-69
2024/01/11 03:44:26;;;;;;;;;30.50;26.75;;;;;7.20;68.41;100918.94;5120576;27;45490;-70
2024/01/11 03:46:51;;;;;;;;;29.25;26.00;;;;;7.10;68.09;100907.19;5121192;27;45441;-69
2024/01/11 03:49:17;;;;;;;;;32.75;25.25;;;;;7.05;68.44;100906.97;5120339;27;46137;-69
2024/01/11 03:51:44;;;;;;;;;36.50;29.25;;;;;7.10;68.29;100915.91;5120326;27;45513;-69
2024/01/11 03:54:10;;;;;;;;;30.00;26.75;;;;;7.09;68.60;100918.41;5120413;27;45331;-69
2024/01/11 03:56:41;;;;;;;;;27.00;24.25;;;;;7.12;68.79;100924.66;5120458;27;45556;-71
2024/01/11 03:59:07;;;;;;;;;28.75;24.75;;;;;7.16;68.78;100924.00;5120216;27;45854;-70
2024/01/11 04:01:33;;;;;;;;;30.75;25.25;;;;;7.18;68.47;100921.44;5120242;27;45309;-68
2024/01/11 04:03:58;;;;;;;;;32.50;24.75;;;;;7.10;68.43;100913.28;5120341;27;45463;-68
2024/01/11 04:06:24;;;;;;;;;24.75;23.00;;;;;7.16;68.49;100908.41;5120849;27;45312;-69
2024/01/11 04:08:50;;;;;;;;;23.25;21.25;;;;;7.21;68.56;100918.13;5119948;27;46190;-69
2024/01/11 04:11:17;;;;;;;;;32.50;27.00;;;;;7.23;68.66;100925.16;5120096;27;45353;-69
2024/01/11 04:13:42;;;;;;;;;29.00;23.00;;;;;7.22;68.61;100928.59;5120059;27;45545;-69
2024/01/11 04:16:08;;;;;;;;;18.00;15.75;;;;;7.27;68.66;100927.09;5117993;27;45444;-69
2024/01/11 04:18:34;;;;;;;;;22.50;20.00;;;;;7.28;68.57;100922.78;5119916;27;46055;-68
2024/01/11 04:20:59;;;;;;;;;27.75;23.50;;;;;7.29;68.53;100927.19;5119976;27;45580;-69
2024/01/11 04:23:25;;;;;;;;;29.75;26.50;;;;;7.28;68.74;100925.38;5120386;27;45463;-68
2024/01/11 04:25:54;;;;;;;;;30.75;22.75;;;;;7.27;68.75;100923.63;5120215;27;45431;-69
2024/01/11 04:28:19;;;;;;;;;24.50;19.75;;;;;7.34;68.40;100924.00;5119712;27;45428;-69
2024/01/11 04:30:45;;;;;;;;;32.75;24.50;;;;;7.33;68.36;100930.00;5119711;27;45404;-68
2024/01/11 04:33:10;;;;;;;;;30.25;26.00;;;;;7.28;68.16;100928.91;5119965;27;45486;-69
2024/01/11 04:35:37;;;;;;;;;30.50;22.00;;;;;7.25;68.46;100927.84;5120051;27;45425;-68
2024/01/11 04:38:03;;;;;;;;;29.75;23.75;;;;;7.22;68.47;100933.81;5119713;27;46103;-69
2024/01/11 04:40:28;;;;;;;;;30.75;28.25;;;;;7.17;68.43;100935.25;5119647;27;45465;-69
2024/01/11 04:42:54;;;;;;;;;34.50;28.25;;;;;7.15;68.46;100936.91;5119890;27;45506;-68
2024/01/11 04:45:19;;;;;;;;;28.75;23.00;;;;;7.14;68.47;100935.09;5119818;27;45568;-69
2024/01/11 04:47:45;;;;;;;;;27.00;23.75;;;;;7.04;68.72;100928.53;5119329;27;46006;-68
2024/01/11 04:50:11;;;;;;;;;30.25;27.50;;;;;6.76;68.61;100879.53;5119099;27;45528;-68
2024/01/11 04:52:36;;;;;;;;;30.00;23.50;;;;;6.95;68.25;100903.00;5119366;27;45513;-69
2024/01/11 04:55:02;;;;;;;;;32.50;24.75;;;;;6.91;68.52;100910.59;5119600;27;45771;-69
2024/01/11 04:57:28;;;;;;;;;23.00;19.50;;;;;6.96;68.52;100940.25;5119669;27;45459;-68
2024/01/11 04:59:53;;;;;;;;;33.00;29.00;;;;;6.94;68.89;100941.88;5119193;27;45471;-68
2024/01/11 05:02:22;;;;;;;;;27.00;23.25;;;;;6.94;68.99;100944.47;5119376;27;45476;-68
2024/01/11 05:04:48;;;;;;;;;32.25;28.50;;;;;6.97;69.30;100942.94;5119919;27;45465;-69
2024/01/11 05:07:14;;;;;;;;;24.75;22.00;;;;;7.01;69.30;100940.50;5119212;27;46101;-68
2024/01/11 05:09:39;;;;;;;;;30.75;25.00;;;;;6.96;69.06;100924.69;5118823;27;45616;-69
2024/01/11 05:12:05;;;;;;;;;28.00;23.00;;;;;7.03;69.02;100942.38;5119820;27;45355;-69
2024/01/11 05:14:31;;;;;;;;;27.25;22.50;;;;;7.06;69.04;100942.53;5119989;27;45419;-69
2024/01/11 05:16:57;;;;;;;;;22.00;19.75;;;;;7.10;69.22;100948.75;5119903;27;45463;-69
2024/01/11 05:19:22;;;;;;;;;28.25;22.75;;;;;7.11;69.30;100951.44;5119815;27;45501;-69
2024/01/11 05:21:48;;;;;;;;;31.50;23.00;;;;;7.13;68.92;100954.13;5119835;27;45457;-69
2024/01/11 05:24:13;;;;;;;;;27.75;25.25;;;;;7.09;69.16;100963.47;5120054;27;45446;-69
2024/01/11 05:26:39;;;;;;;;;23.75;22.50;;;;;7.05;68.93;100966.72;5119695;27;45452;-69
2024/01/11 05:29:04;;;;;;;;;21.50;19.75;;;;;7.04;68.37;100966.63;5119600;27;45448;-69
2024/01/11 05:31:30;;;;;;;;;19.00;16.25;;;;;7.03;68.36;100964.88;5118269;27;45408;-68
2024/01/11 05:33:56;;;;;;;;;24.50;19.50;;;;;7.02;68.16;100961.34;5119502;27;45588;-69
2024/01/11 05:36:21;;;;;;;;;37.25;28.50;;;;;6.89;68.28;100949.44;5118560;27;45430;-69
2024/01/11 05:38:47;;;;;;;;;83.33;66.00;;;;;6.97;68.43;100968.03;5118858;27;45535;-68
2024/01/11 05:41:13;;;;;;;;;23.50;19.50;;;;;6.95;68.62;100978.34;5119134;27;45419;-69
2024/01/11 05:43:40;;;;;;;;;19.25;19.00;;;;;6.96;68.94;100976.63;5119161;27;45474;-69
2024/01/11 05:46:06;;;;;;;;;28.25;27.75;;;;;6.84;69.02;100960.41;5119279;27;46285;-69
2024/01/11 05:48:32;;;;;;;;;21.50;19.50;;;;;6.94;69.12;100976.56;5119511;27;45551;-69
2024/01/11 05:50:58;;;;;;;;;28.25;22.75;;;;;6.96;69.01;100972.34;5119372;27;45500;-69
2024/01/11 05:53:24;;;;;;;;;29.00;19.00;;;;;6.98;69.03;100964.59;5119571;27;45454;-70
2024/01/11 05:55:50;;;;;;;;;21.50;18.00;;;;;7.01;68.60;100953.50;5119090;27;46066;-69
2024/01/11 05:58:15;;;;;;;;;17.00;15.75;;;;;6.99;68.44;100952.53;5119275;27;45527;-69
2024/01/11 06:00:41;;;;;;;;;13.00;13.00;;;;;6.99;68.79;100949.94;5119310;27;45508;-69
2024/01/11 06:03:07;;;;;;;;;18.75;14.75;;;;;6.99;68.97;100956.00;5119530;27;45535;-68
2024/01/11 06:05:33;;;;;;;;;16.25;12.75;;;;;6.70;68.88;100921.63;5119175;27;45481;-68
2024/01/11 06:07:59;;;;;;;;;13.25;10.25;;;;;6.97;69.05;100973.22;5117986;27;45305;-69
2024/01/11 06:10:25;;;;;;;;;22.25;19.25;;;;;6.98;68.88;100972.41;5119339;27;45314;-68
2024/01/11 06:12:50;;;;;;;;;16.50;14.25;;;;;6.88;68.85;100946.78;5120594;27;45533;-68
2024/01/11 06:15:16;;;;;;;;;21.50;15.00;;;;;6.99;68.93;100970.72;5119880;27;45943;-68
2024/01/11 06:17:41;;;;;;;;;18.75;15.50;;;;;6.97;68.86;100970.63;5118947;27;45396;-68
2024/01/11 06:20:09;;;;;;;;;13.25;12.50;;;;;6.82;68.54;100944.75;5118990;27;45466;-68
2024/01/11 06:22:35;;;;;;;;;10.75;9.75;;;;;6.97;68.84;100975.81;5119155;27;45446;-68
2024/01/11 06:25:00;;;;;;;;;14.50;11.75;;;;;6.97;68.85;100976.72;5118905;27;45348;-69
2024/01/11 06:27:26;;;;;;;;;15.25;13.75;;;;;6.76;68.46;100947.94;5118513;27;45372;-68
2024/01/11 06:29:52;;;;;;;;;18.75;14.75;;;;;6.92;68.48;100983.38;5118731;27;45318;-68
2024/01/11 06:32:18;;;;;;;;;21.00;19.00;;;;;6.89;68.63;100985.81;5118813;27;45549;-68
2024/01/11 06:34:45;;;;;;;;;18.00;16.50;;;;;6.91;68.94;100984.19;5118639;27;45432;-68
2024/01/11 06:37:12;;;;;;;;;14.75;14.50;;;;;6.96;68.69;100982.72;5118569;27;45539;-68
2024/01/11 06:39:37;;;;;;;;;16.25;14.25;;;;;7.00;68.68;100990.66;5118089;27;45180;-68
2024/01/11 06:42:04;;;;;;;;;7.00;3.50;;;;;7.02;68.52;100996.81;5118955;27;45255;-68
2024/01/11 06:44:30;;;;;;;;;19.75;15.00;;;;;6.77;68.46;100951.44;5118676;27;45941;-68
2024/01/11 06:46:56;;;;;;;;;15.00;13.25;;;;;6.97;68.18;101002.69;5118511;27;45254;-68
2024/01/11 06:49:21;;;;;;;;;17.00;16.75;;;;;6.81;68.28;100983.66;5118370;27;45400;-68
2024/01/11 06:51:47;;;;;;;;;16.75;14.25;;;;;6.89;68.52;100995.31;5118582;27;45603;-69
2024/01/11 06:54:13;;;;;;;;;48.00;40.00;;;;;6.95;68.48;101000.81;5118280;27;45600;-68
2024/01/11 06:56:38;;;;;;;;;27.50;21.75;;;;;6.95;68.57;100996.53;5116819;27;45421;-68
2024/01/11 06:59:04;;;;;;;;;18.00;17.50;;;;;6.90;68.59;101003.19;5118718;27;45466;-68
2024/01/11 07:01:30;;;;;;;;;24.50;23.75;;;;;6.85;68.60;101007.25;5118597;27;45288;-68
2024/01/11 07:03:58;;;;;;;;;46.25;39.50;;;;;6.89;68.41;101013.50;5116796;27;45800;-68
2024/01/11 07:06:24;;;;;;;;;60.00;50.75;;;;;6.88;68.85;101016.91;5116944;27;45484;-69
2024/01/11 07:08:49;;;;;;;;;74.00;56.00;;;;;6.69;68.79;100983.91;5116981;27;45241;-68
2024/01/11 07:11:15;;;;;;;;;23.75;22.00;;;;;6.89;69.02;101022.19;5118411;27;45283;-69
2024/01/11 07:13:42;;;;;;;;;31.75;24.00;;;;;6.88;68.86;101024.69;5118515;27;45570;-68
2024/01/11 07:16:08;;;;;;;;;20.75;18.50;;;;;6.88;68.95;101025.56;5117544;27;45511;-68
2024/01/11 07:18:33;;;;;;;;;39.75;37.25;;;;;6.76;68.76;101004.16;5118037;27;45477;-67
2024/01/11 07:21:00;;;;;;;;;31.25;29.00;;;;;6.72;68.36;100991.81;5116567;27;45369;-71
2024/01/11 07:23:27;;;;;;;;;34.50;30.50;;;;;6.78;68.55;101007.72;5117437;27;46139;-69
2024/01/11 07:25:52;;;;;;;;;19.25;16.00;;;;;6.86;68.90;101040.19;5117826;27;45624;-68
2024/01/11 07:28:19;;;;;;;;;26.25;23.75;;;;;6.89;68.80;101029.09;5117816;27;45554;-68
2024/01/11 07:30:46;;;;;;;;;24.25;22.50;;;;;6.94;68.44;101032.78;5117734;27;45498;-71
2024/01/11 07:33:15;;;;;;;;;23.75;22.50;;;;;6.91;68.98;101041.31;5117363;27;46144;-71
2024/01/11 07:35:41;;;;;;;;;30.75;25.75;;;;;6.89;68.81;101037.75;5117579;27;45370;-68
2024/01/11 07:38:06;;;;;;;;;17.50;15.75;;;;;6.91;68.24;101028.34;5118146;27;45514;-68
2024/01/11 07:40:32;;;;;;;;;19.00;18.50;;;;;6.88;68.77;101024.69;5117505;27;45423;-70
2024/01/11 07:42:57;;;;;;;;;23.50;18.25;;;;;6.72;68.50;100997.91;5117689;27;45317;-68
2024/01/11 07:45:23;;;;;;;;;34.50;29.50;;;;;6.85;68.51;101022.81;5117522;27;45246;-67
2024/01/11 07:47:49;;;;;;;;;42.50;36.25;;;;;6.79;68.31;101035.50;5117754;27;45331;-67
2024/01/11 07:50:14;;;;;;;;;36.25;34.75;;;;;6.63;68.67;101010.41;5117808;27;45387;-68
2024/01/11 07:52:43;;;;;;;;;29.00;26.00;;;;;6.79;68.58;101040.69;5119874;27;46274;-67
2024/01/11 07:55:11;;;;;;;;;19.75;17.00;;;;;6.81;69.03;101043.38;5120843;27;45410;-67
2024/01/11 07:57:37;;;;;;;;;17.25;14.00;;;;;6.81;68.94;101040.78;5120699;27;45463;-68
2024/01/11 08:00:06;;;;;;;;;26.75;23.25;;;;;6.60;68.79;100996.38;5120286;27;45258;-67
2024/01/11 08:02:35;;;;;;;;;19.75;17.75;;;;;6.67;68.47;101017.56;5120054;27;45333;-68
2024/01/11 08:05:01;;;;;;;;;23.50;20.00;;;;;6.84;68.44;101052.19;5117435;27;45304;-67
2024/01/11 08:07:30;;;;;;;;;25.50;22.50;;;;;6.63;68.62;101017.31;5120117;27;45478;-68
2024/01/11 08:09:56;;;;;;;;;26.00;25.50;;;;;6.81;68.58;101049.44;5120124;27;45436;-70
2024/01/11 08:12:22;;;;;;;;;20.50;17.75;;;;;6.71;68.74;101026.41;5118454;27;46476;-71
2024/01/11 08:14:48;;;;;;;;;27.75;19.50;;;;;6.65;68.71;101011.38;5119961;27;45640;-68
2024/01/11 08:17:16;;;;;;;;;18.75;17.75;;;;;6.65;68.63;101001.00;5120681;27;45406;-67
2024/01/11 08:19:44;;;;;;;;;17.00;15.00;;;;;7.02;68.63;101054.88;5121002;27;45561;-67
2024/01/11 08:22:11;;;;;;;;;22.25;18.25;;;;;7.04;68.39;101067.94;5120511;27;46269;-69
2024/01/11 08:24:37;;;;;;;;;20.25;17.50;;;;;6.95;68.15;101047.59;5120956;27;45428;-68
2024/01/11 08:27:04;;;;;;;;;22.25;18.00;;;;;7.00;68.67;101060.81;5120502;27;45302;-68
2024/01/11 08:29:29;;;;;;;;;18.00;16.25;;;;;7.07;68.48;101060.31;5120782;27;45426;-68
2024/01/11 08:31:56;;;;;;;;;23.75;19.00;;;;;7.10;68.45;101063.97;5120349;27;45502;-68
2024/01/11 08:34:22;;;;;;;;;13.75;12.25;;;;;6.95;68.02;101047.59;5120448;27;45458;-68
2024/01/11 08:36:47;;;;;;;;;26.75;24.00;;;;;7.08;67.65;101082.88;5120523;27;45453;-68
2024/01/11 08:39:14;;;;;;;;;20.50;18.00;;;;;7.05;68.36;101085.31;5120828;27;45399;-68
2024/01/11 08:41:40;;;;;;;;;29.00;27.50;;;;;7.08;68.33;101090.66;5120133;27;46026;-69
2024/01/11 08:44:05;;;;;;;;;30.50;28.50;;;;;7.08;68.21;101094.19;5118798;27;45397;-68
2024/01/11 08:46:33;;;;;;;;;24.00;21.25;;;;;7.08;67.95;101073.41;5120211;27;45502;-68
2024/01/11 08:48:59;;;;;;;;;31.75;27.75;;;;;7.21;67.68;101089.63;5120569;27;45394;-68
2024/01/11 08:51:25;;;;;;;;;29.50;25.00;;;;;7.15;67.95;101096.28;5119831;27;45440;-68
2024/01/11 08:53:52;;;;;;;;;31.00;28.25;;;;;7.17;68.02;101096.34;5119798;27;45743;-68
2024/01/11 08:56:18;;;;;;;;;32.50;29.25;;;;;7.11;68.58;101083.06;5118856;27;45511;-69
2024/01/11 08:58:44;;;;;;;;;36.25;35.00;;;;;7.24;68.61;101110.56;5120325;27;45469;-68
2024/01/11 09:01:10;;;;;;;;;54.50;44.50;;;;;7.27;68.26;101106.41;5120036;27;45454;-68
2024/01/11 09:03:39;;;;;;;;;37.50;32.50;;;;;7.29;68.23;101111.69;5119560;27;45541;-67
2024/01/11 09:06:05;;;;;;;;;43.00;39.75;;;;;7.33;68.06;101114.53;5119857;27;45309;-68
2024/01/11 09:08:30;;;;;;;;;38.50;36.00;;;;;7.38;67.86;101114.75;5120165;27;45266;-70
2024/01/11 09:10:58;;;;;;;;;48.25;37.75;;;;;7.40;68.07;101110.56;5119588;27;46115;-68
2024/01/11 09:13:25;;;;;;;;;37.00;33.50;;;;;7.19;68.35;101073.94;5119857;27;45327;-68
2024/01/11 09:15:52;;;;;;;;;33.25;31.00;;;;;7.40;67.77;101105.38;5119924;27;45287;-68
2024/01/11 09:18:18;;;;;;;;;23.75;23.75;;;;;7.48;68.00;101121.31;5120044;27;45494;-67
2024/01/11 09:20:51;;;;;;;;;23.50;21.00;;;;;7.49;67.90;101129.22;5119403;27;45656;-68
2024/01/11 09:23:18;;;;;;;;;27.00;23.75;;;;;7.27;67.94;101076.94;5119336;27;45550;-68
2024/01/11 09:25:44;;;;;;;;;33.50;31.75;;;;;7.39;67.99;101093.16;5119429;27;45429;-69
2024/01/11 09:28:09;;;;;;;;;35.25;33.50;;;;;7.59;67.74;101122.78;5120014;27;45317;-68
2024/01/11 09:30:35;;;;;;;;;35.00;32.75;;;;;7.59;67.74;101120.19;5119356;27;45367;-68
2024/01/11 09:33:01;;;;;;;;;43.25;38.75;;;;;7.56;67.67;101114.84;5119339;27;45856;-68
2024/01/11 09:35:27;;;;;;;;;48.50;42.50;;;;;7.62;66.84;101133.34;5117489;27;45324;-68
2024/01/11 09:37:53;;;;;;;;;28.00;23.00;;;;;7.65;67.43;101124.81;5119647;27;45417;-69
2024/01/11 09:40:19;;;;;;;;;23.25;20.25;;;;;7.53;67.11;101104.28;5119061;27;45408;-68
2024/01/11 09:42:45;;;;;;;;;25.25;21.75;;;;;7.56;66.97;101101.84;5119450;27;45455;-69
2024/01/11 09:45:15;;;;;;;;;16.00;14.75;;;;;7.82;67.29;101136.06;5119861;27;45253;-68
2024/01/11 09:47:41;;;;;;;;;16.25;16.00;;;;;7.88;67.49;101133.78;5119664;27;45502;-68
2024/01/11 09:50:08;;;;;;;;;16.75;14.00;;;;;7.63;67.19;101079.63;5118783;27;46050;-69
2024/01/11 09:52:34;;;;;;;;;29.00;20.00;;;;;8.02;67.14;101144.84;5118862;27;45646;-68
2024/01/11 09:55:02;;;;;;;;;26.00;22.00;;;;;7.97;67.12;101122.09;5117630;27;45441;-68
2024/01/11 09:57:32;;;;;;;;;29.50;25.75;;;;;8.20;67.01;101148.38;5119583;27;45307;-71
2024/01/11 09:59:58;;;;;;;;;20.00;18.25;;;;;8.19;66.77;101164.81;5119187;27;45307;-68
2024/01/11 10:02:28;;;;;;;;;28.00;23.25;;;;;8.22;66.55;101164.09;5119062;27;45502;-71
2024/01/11 10:04:54;;;;;;;;;27.00;25.00;;;;;8.27;66.54;101170.41;5119021;27;45363;-69
2024/01/11 10:07:22;;;;;;;;;25.75;23.50;;;;;8.33;66.58;101163.75;5119182;27;45379;-71
2024/01/11 10:09:48;;;;;;;;;24.50;21.00;;;;;8.36;66.31;101161.31;5118853;27;45658;-71
2024/01/11 10:12:14;;;;;;;;;20.75;20.25;;;;;8.15;66.18;101122.13;5119242;27;45490;-70
2024/01/11 10:14:39;;;;;;;;;30.00;25.00;;;;;8.21;66.21;101151.88;5117984;27;45241;-70
2024/01/11 10:17:06;;;;;;;;;23.00;18.75;;;;;8.36;66.19;101178.66;5119171;27;45479;-68
2024/01/11 10:19:32;;;;;;;;;27.75;25.00;;;;;8.35;65.87;101176.88;5118452;27;46099;-70
2024/01/11 10:22:01;;;;;;;;;28.00;25.25;;;;;8.12;66.06;101160.13;5118510;27;45507;-70
2024/01/11 10:24:28;;;;;;;;;23.25;22.00;;;;;8.39;66.06;101170.09;5117475;27;45406;-70
2024/01/11 10:27:03;;;;;;;;;26.00;25.00;;;;;8.42;66.10;101184.19;5118929;27;45399;-70
2024/01/11 10:29:33;;;;;;;;;31.25;26.25;;;;;8.44;65.61;101176.47;5118516;27;46132;-70
2024/01/11 10:31:59;;;;;;;;;34.75;30.25;;;;;8.30;65.57;101171.44;5118500;27;45804;-71
2024/01/11 10:34:24;;;;;;;;;32.50;30.00;;;;;8.32;65.45;101163.72;5117264;27;45329;-71
2024/01/11 10:36:53;;;;;;;;;36.25;30.00;;;;;8.35;65.92;101188.16;5118901;27;45399;-70
2024/01/11 10:39:27;;;;;;;;;42.00;37.00;;;;;8.27;65.72;101178.19;5118435;27;45413;-71
2024/01/11 10:42:05;;;;;;;;;34.50;30.75;;;;;8.26;65.84;101166.91;5118369;27;45552;-70
2024/01/11 10:44:35;;;;;;;;;34.00;33.50;;;;;8.31;66.30;101160.19;5118310;27;45258;-70
2024/01/11 10:47:05;;;;;;;;;37.25;32.25;;;;;8.52;66.55;101169.91;5118670;27;45481;-70
2024/01/11 10:49:33;;;;;;;;;43.50;34.00;;;;;8.77;66.05;101171.97;5118153;27;45432;-71
2024/01/11 10:52:02;;;;;;;;;41.00;36.75;;;;;8.91;65.07;101163.09;5118233;27;45320;-70
2024/01/11 10:54:30;;;;;;;;;42.75;35.50;;;;;8.87;65.59;101165.47;5118515;27;45454;-70
2024/01/11 10:56:59;;;;;;;;;43.25;37.00;;;;;8.89;65.57;101145.59;5118299;27;45420;-70
2024/01/11 10:59:27;;;;;;;;;46.50;38.50;;;;;9.15;64.93;101152.00;5117896;27;45408;-70
2024/01/11 11:01:58;;;;;;;;;52.75;43.25;;;;;9.35;64.55;101150.28;5118191;27;45403;-70
2024/01/11 11:04:24;;;;;;;;;42.75;35.50;;;;;9.38;63.94;101147.81;5116827;27;45492;-70
2024/01/11 11:06:57;;;;;;;;;42.50;37.00;;;;;9.61;64.67;101148.84;5117024;27;45570;-70
2024/01/11 11:09:24;;;;;;;;;41.25;37.50;;;;;9.82;64.19;101155.81;5118059;27;45604;-70
2024/01/11 11:11:49;;;;;;;;;43.75;33.50;;;;;9.75;63.15;101112.91;5118395;27;45423;-70